createdAt,value
2023-02-02T00:00:07.273Z,1.80
2023-02-02T00:00:44.537Z,1.74
2023-02-02T00:01:36.619Z,1.68
2023-02-02T00:02:10.269Z,1.73
2023-02-02T00:02:43.709Z,1.75
2023-02-02T00:03:17.732Z,1.75
2023-02-02T00:03:51.542Z,1.76
2023-02-02T00:04:31.067Z,1.80
2023-02-02T00:05:04.698Z,1.76
2023-02-02T00:05:38.113Z,1.75
2023-02-02T00:06:11.771Z,1.78
2023-02-02T00:06:46.255Z,1.73
2023-02-02T00:07:19.587Z,1.75
2023-02-02T00:07:53.297Z,1.77
2023-02-02T00:08:26.739Z,1.71
2023-02-02T00:09:02.404Z,1.75
2023-02-02T00:09:35.997Z,1.76
2023-02-02T00:10:10.048Z,1.82
2023-02-02T00:10:43.974Z,1.74
2023-02-02T00:11:18.938Z,1.71
2023-02-02T00:11:52.357Z,1.74
2023-02-02T00:12:25.840Z,1.78
2023-02-02T00:12:59.267Z,1.77
2023-02-02T00:13:33.197Z,1.73
2023-02-02T00:14:08.157Z,1.71
2023-02-02T00:14:41.488Z,1.74
2023-02-02T00:15:14.938Z,1.72
2023-02-02T00:15:48.295Z,1.71
2023-02-02T00:16:27.410Z,1.70
2023-02-02T00:17:01.356Z,1.68
2023-02-02T00:17:34.883Z,1.72
2023-02-02T00:18:08.309Z,1.70
2023-02-02T00:18:41.738Z,1.73
2023-02-02T00:19:18.494Z,1.77
2023-02-02T00:19:52.001Z,1.75
2023-02-02T00:20:25.480Z,1.71
2023-02-02T00:20:58.798Z,1.75
2023-02-02T00:21:32.563Z,1.74
2023-02-02T00:22:05.954Z,1.71
2023-02-02T00:22:39.243Z,1.69
2023-02-02T00:23:12.819Z,1.73
2023-02-02T00:23:46.182Z,1.73
2023-02-02T00:24:20.125Z,1.74
2023-02-02T00:24:53.630Z,1.70
2023-02-02T00:25:26.958Z,1.72
2023-02-02T00:26:00.380Z,1.76
2023-02-02T00:26:34.285Z,1.74
2023-02-02T00:27:07.652Z,1.72
2023-02-02T00:27:42.958Z,1.71
2023-02-02T00:28:16.262Z,1.68
2023-02-02T00:28:49.806Z,1.68
2023-02-02T00:29:26.384Z,1.68
2023-02-02T00:29:59.815Z,1.68
2023-02-02T00:30:33.283Z,1.68
2023-02-02T00:31:06.922Z,1.72
2023-02-02T00:31:40.463Z,1.73
2023-02-02T00:32:13.994Z,1.69
2023-02-02T00:32:48.809Z,1.73
2023-02-02T00:33:22.182Z,1.69
2023-02-02T00:33:56.271Z,1.69
2023-02-02T00:34:30.075Z,1.70
2023-02-02T00:35:03.626Z,1.68
2023-02-02T00:38:14.266Z,1.59
2023-02-02T00:38:49.276Z,1.58
2023-02-02T00:39:27.746Z,1.58
2023-02-02T00:40:01.425Z,1.59
2023-02-02T00:40:34.998Z,1.59
2023-02-02T00:41:08.893Z,1.58
2023-02-02T00:41:42.366Z,1.57
2023-02-02T00:42:15.752Z,1.61
2023-02-02T00:42:50.707Z,1.60
2023-02-02T00:43:24.038Z,1.57
2023-02-02T00:44:16.203Z,1.55
2023-02-02T00:45:08.241Z,1.50
2023-02-02T00:45:41.711Z,1.48
2023-02-02T00:46:18.559Z,1.56
2023-02-02T00:46:52.517Z,1.55
2023-02-02T00:47:25.870Z,1.55
2023-02-02T00:47:59.271Z,1.57
2023-02-02T00:48:32.853Z,1.58
2023-02-02T00:49:08.289Z,1.65
2023-02-02T00:49:42.272Z,1.65
2023-02-02T00:50:19.683Z,1.63
2023-02-02T00:50:53.895Z,1.62
2023-02-02T00:51:27.265Z,1.65
2023-02-02T00:52:00.666Z,1.61
2023-02-02T00:52:34.034Z,1.69
2023-02-02T00:53:07.409Z,1.68
2023-02-02T00:53:40.816Z,1.64
2023-02-02T00:54:17.291Z,1.64
2023-02-02T00:54:50.699Z,1.64
2023-02-02T00:55:24.408Z,1.67
2023-02-02T00:55:58.262Z,1.64
2023-02-02T00:56:31.698Z,1.62
2023-02-02T00:57:05.494Z,1.66
2023-02-02T00:57:39.568Z,1.62
2023-02-02T00:58:12.993Z,1.61
2023-02-02T00:58:46.308Z,1.60
2023-02-02T00:59:19.657Z,1.57
2023-02-02T00:59:53.026Z,1.60
2023-02-02T01:00:27.589Z,1.60
2023-02-02T01:01:01.900Z,1.58
2023-02-02T01:01:35.838Z,1.58
2023-02-02T01:02:11.162Z,1.58
2023-02-02T01:02:45.178Z,1.62
2023-02-02T01:03:18.706Z,1.58
2023-02-02T01:03:52.524Z,1.58
2023-02-02T01:04:26.029Z,1.58
2023-02-02T01:05:00.023Z,1.58
2023-02-02T01:05:34.765Z,1.59
2023-02-02T01:06:08.193Z,1.61
2023-02-02T01:06:42.393Z,1.57
2023-02-02T01:07:16.042Z,1.55
2023-02-02T01:07:49.657Z,1.54
2023-02-02T01:08:23.187Z,1.53
2023-02-02T01:08:59.759Z,1.52
2023-02-02T01:09:36.659Z,1.54
2023-02-02T01:10:15.065Z,1.53
2023-02-02T01:10:49.483Z,1.54
2023-02-02T01:11:23.026Z,1.53
2023-02-02T01:11:56.376Z,1.53
2023-02-02T01:12:31.845Z,1.49
2023-02-02T01:13:05.182Z,1.53
2023-02-02T01:13:38.885Z,1.55
2023-02-02T01:14:12.281Z,1.54
2023-02-02T01:14:45.643Z,1.54
2023-02-02T01:15:19.281Z,1.52
2023-02-02T01:16:01.229Z,1.54
2023-02-02T01:16:34.921Z,1.53
2023-02-02T01:17:08.365Z,1.52
2023-02-02T01:17:41.773Z,1.53
2023-02-02T01:18:15.212Z,1.55
2023-02-02T01:18:49.637Z,1.57
2023-02-02T01:19:22.984Z,1.59
2023-02-02T01:19:56.287Z,1.58
2023-02-02T01:20:29.633Z,1.60
2023-02-02T01:21:09.899Z,1.58
2023-02-02T01:21:44.227Z,1.58
2023-02-02T01:22:17.848Z,1.59
2023-02-02T01:22:52.032Z,1.60
2023-02-02T01:23:25.433Z,1.60
2023-02-02T01:24:00.188Z,1.62
2023-02-02T01:24:33.863Z,1.63
2023-02-02T01:25:07.449Z,1.65
2023-02-02T01:25:40.799Z,1.62
2023-02-02T01:26:18.478Z,1.60
2023-02-02T01:26:52.077Z,1.60
2023-02-02T01:27:26.188Z,1.60
2023-02-02T01:27:59.544Z,1.66
2023-02-02T01:28:35.511Z,1.67
2023-02-02T01:29:09.029Z,1.67
2023-02-02T01:29:42.403Z,1.70
2023-02-02T01:30:15.941Z,1.68
2023-02-02T01:30:50.310Z,1.64
2023-02-02T01:31:23.873Z,1.62
2023-02-02T01:31:57.371Z,1.67
2023-02-02T01:32:31.488Z,1.59
2023-02-02T01:33:04.899Z,1.58
2023-02-02T01:33:38.460Z,1.61
2023-02-02T01:34:11.912Z,1.67
2023-02-02T01:34:45.397Z,1.70
2023-02-02T01:35:18.853Z,1.72
2023-02-02T01:35:56.427Z,1.70
2023-02-02T01:36:29.935Z,1.61
2023-02-02T01:37:03.393Z,1.56
2023-02-02T01:37:37.099Z,1.52
2023-02-02T01:38:10.473Z,1.52
2023-02-02T01:38:44.025Z,1.56
2023-02-02T01:39:17.381Z,1.53
2023-02-02T01:39:51.526Z,1.51
2023-02-02T01:40:24.994Z,1.52
2023-02-02T01:40:58.808Z,1.55
2023-02-02T01:41:32.564Z,1.58
2023-02-02T01:42:20.425Z,1.67
2023-02-02T01:42:53.802Z,1.61
2023-02-02T01:43:30.282Z,1.58
2023-02-02T01:44:06.391Z,1.58
2023-02-02T01:45:00.650Z,1.65
2023-02-02T01:45:34.371Z,1.53
2023-02-02T01:46:12.434Z,1.51
2023-02-02T01:46:45.975Z,1.49
2023-02-02T01:47:27.619Z,1.52
2023-02-02T01:48:01.343Z,1.51
2023-02-02T01:48:35.817Z,1.56
2023-02-02T01:49:16.901Z,1.58
2023-02-02T01:49:50.346Z,1.52
2023-02-02T01:50:29.304Z,1.48
2023-02-02T01:51:07.881Z,1.45
2023-02-02T01:51:47.711Z,1.49
2023-02-02T01:52:24.494Z,1.59
2023-02-02T01:53:00.920Z,1.62
2023-02-02T01:53:34.970Z,1.52
2023-02-02T01:54:13.797Z,1.54
2023-02-02T01:54:52.115Z,1.54
2023-02-02T01:55:28.572Z,1.48
2023-02-02T01:56:06.534Z,1.47
2023-02-02T01:56:45.877Z,1.44
2023-02-02T01:57:36.131Z,1.37
2023-02-02T01:58:18.488Z,1.32
2023-02-02T01:58:52.297Z,1.29
2023-02-02T01:59:28.028Z,1.27
2023-02-02T02:00:06.939Z,1.29
2023-02-02T02:00:47.249Z,1.24
2023-02-02T02:01:21.042Z,1.27
2023-02-02T02:01:55.615Z,1.26
2023-02-02T02:02:32.406Z,1.29
2023-02-02T02:03:11.559Z,1.22
2023-02-02T02:03:45.225Z,1.24
2023-02-02T02:04:19.150Z,1.23
2023-02-02T02:04:52.690Z,1.25
2023-02-02T02:06:05.872Z,1.24
2023-02-02T02:06:39.422Z,1.18
2023-02-02T02:07:13.087Z,1.21
2023-02-02T02:07:49.345Z,1.26
2023-02-02T02:08:31.089Z,1.28
2023-02-02T02:09:07.062Z,1.34
2023-02-02T02:09:40.519Z,1.36
2023-02-02T02:10:14.022Z,1.37
2023-02-02T02:10:47.721Z,1.43
2023-02-02T02:11:22.349Z,1.45
2023-02-02T02:11:55.955Z,1.38
2023-02-02T02:12:29.580Z,1.41
2023-02-02T02:13:04.947Z,1.37
2023-02-02T02:13:58.496Z,1.41
2023-02-02T02:14:53.318Z,1.35
2023-02-02T02:15:51.646Z,1.40
2023-02-02T02:16:45.559Z,1.37
2023-02-02T02:17:27.392Z,1.43
2023-02-02T02:18:16.413Z,1.39
2023-02-02T02:19:02.191Z,1.37
2023-02-02T02:20:32.030Z,1.35
2023-02-02T02:21:52.370Z,1.51
2023-02-02T02:22:55.831Z,1.43
2023-02-02T02:24:08.102Z,1.40
2023-02-02T02:25:11.944Z,1.35
2023-02-02T02:26:22.698Z,1.34
2023-02-02T02:27:06.411Z,1.29
2023-02-02T02:28:10.726Z,1.29
2023-02-02T02:29:25.748Z,1.31
2023-02-02T02:30:37.336Z,1.31
2023-02-02T02:31:34.186Z,1.35
2023-02-02T02:32:40.888Z,1.31
2023-02-02T02:33:22.951Z,1.28
2023-02-02T02:34:02.559Z,1.45
2023-02-02T02:35:03.644Z,1.36
2023-02-02T02:35:45.594Z,1.27
2023-02-02T02:36:30.085Z,1.29
2023-02-02T02:37:12.600Z,1.27
2023-02-02T02:37:57.520Z,1.26
2023-02-02T02:38:57.770Z,1.27
2023-02-02T02:39:40.526Z,1.19
2023-02-02T02:40:20.186Z,1.30
2023-02-02T02:41:01.810Z,1.31
2023-02-02T02:41:44.252Z,1.27
2023-02-02T02:42:23.099Z,1.36
2023-02-02T02:43:02.126Z,1.33
2023-02-02T02:43:43.788Z,1.31
2023-02-02T02:44:19.625Z,1.27
2023-02-02T02:44:56.627Z,1.24
2023-02-02T02:45:31.704Z,1.32
2023-02-02T02:46:06.623Z,1.27
2023-02-02T02:46:40.188Z,1.28
2023-02-02T02:47:14.336Z,1.31
2023-02-02T02:47:49.896Z,1.33
2023-02-02T02:48:23.724Z,1.36
2023-02-02T02:50:45.132Z,1.39
2023-02-02T02:51:43.154Z,1.34
2023-02-02T02:52:17.738Z,1.33
2023-02-02T02:53:00.766Z,1.39
2023-02-02T02:53:37.645Z,1.39
2023-02-02T02:54:25.081Z,1.45
2023-02-02T02:55:01.051Z,1.37
2023-02-02T02:55:52.888Z,1.36
2023-02-02T02:56:35.982Z,1.37
2023-02-02T02:57:20.678Z,1.37
2023-02-02T02:58:05.354Z,1.38
2023-02-02T02:58:50.858Z,1.31
2023-02-02T02:59:49.641Z,1.40
2023-02-02T03:01:08.074Z,1.35
2023-02-02T03:02:05.148Z,1.29
2023-02-02T03:02:56.620Z,1.32
2023-02-02T03:03:37.463Z,1.20
2023-02-02T03:04:17.321Z,1.24
2023-02-02T03:04:56.105Z,1.20
2023-02-02T03:05:37.374Z,1.23
2023-02-02T03:06:29.319Z,1.23
2023-02-02T03:07:13.491Z,1.18
2023-02-02T03:08:00.464Z,1.18
2023-02-02T03:09:02.608Z,1.13
2023-02-02T03:09:40.909Z,1.03
2023-02-02T03:10:18.575Z,1.09
2023-02-02T03:10:53.211Z,1.06
2023-02-02T03:11:26.668Z,1.04
2023-02-02T03:12:00.448Z,1.02
2023-02-02T03:12:34.636Z,1.01
2023-02-02T03:13:10.992Z,1.08
2023-02-02T03:13:44.865Z,1.09
2023-02-02T03:14:18.620Z,1.04
2023-02-02T03:14:51.966Z,1.09
2023-02-02T03:15:25.785Z,1.07
2023-02-02T03:15:59.863Z,1.07
2023-02-02T03:16:33.536Z,1.03
2023-02-02T03:17:06.898Z,1.01
2023-02-02T03:17:41.719Z,1.08
2023-02-02T03:18:19.372Z,1.05
2023-02-02T03:18:52.964Z,1.00
2023-02-02T03:19:26.320Z,1.07
2023-02-02T03:19:59.637Z,1.09
2023-02-02T03:20:33.100Z,1.14
2023-02-02T03:21:06.600Z,1.11
2023-02-02T03:21:39.989Z,1.11
2023-02-02T03:22:13.361Z,1.09
2023-02-02T03:22:46.759Z,1.04
2023-02-02T03:23:20.155Z,1.02
2023-02-02T03:23:53.628Z,1.03
2023-02-02T03:24:26.921Z,1.07
2023-02-02T03:25:00.283Z,1.05
2023-02-02T03:25:34.089Z,1.04
2023-02-02T03:26:07.841Z,0.99
2023-02-02T03:26:41.673Z,0.98
2023-02-02T03:27:15.161Z,0.96
2023-02-02T03:27:48.543Z,1.00
2023-02-02T03:28:24.444Z,0.98
2023-02-02T03:28:57.906Z,0.96
2023-02-02T03:29:31.613Z,0.93
2023-02-02T03:30:14.765Z,1.07
2023-02-02T03:30:48.977Z,1.05
2023-02-02T03:31:22.492Z,1.03
2023-02-02T03:31:56.127Z,1.04
2023-02-02T03:32:29.641Z,0.98
2023-02-02T03:33:03.850Z,0.93
2023-02-02T03:33:38.864Z,0.90
2023-02-02T03:34:12.244Z,0.94
2023-02-02T03:34:45.618Z,0.91
2023-02-02T03:35:20.994Z,0.92
2023-02-02T03:35:54.496Z,0.94
2023-02-02T03:37:02.532Z,0.88
2023-02-02T03:37:36.204Z,0.85
2023-02-02T03:38:09.681Z,0.88
2023-02-02T03:38:43.160Z,0.90
2023-02-02T03:39:16.584Z,0.86
2023-02-02T03:39:49.973Z,0.83
2023-02-02T03:40:23.643Z,0.77
2023-02-02T03:40:57.249Z,0.78
2023-02-02T03:41:30.693Z,0.78
2023-02-02T03:42:04.230Z,0.78
2023-02-02T03:42:37.745Z,0.76
2023-02-02T03:43:11.207Z,0.80
2023-02-02T03:43:44.579Z,0.78
2023-02-02T03:44:18.406Z,0.84
2023-02-02T03:44:51.842Z,0.80
2023-02-02T03:45:28.772Z,0.74
2023-02-02T03:46:04.645Z,0.72
2023-02-02T03:46:38.427Z,0.75
2023-02-02T03:47:11.782Z,0.76
2023-02-02T03:47:45.319Z,0.79
2023-02-02T03:48:18.718Z,0.82
2023-02-02T03:48:52.239Z,0.79
2023-02-02T03:49:25.609Z,0.78
2023-02-02T03:49:59.415Z,0.73
2023-02-02T03:50:33.596Z,0.74
2023-02-02T03:51:12.618Z,0.70
2023-02-02T03:51:46.066Z,0.74
2023-02-02T03:52:19.454Z,0.72
2023-02-02T03:52:54.123Z,0.70
2023-02-02T03:53:27.486Z,0.69
2023-02-02T03:54:00.870Z,0.70
2023-02-02T03:54:34.564Z,0.75
2023-02-02T03:55:08.357Z,0.67
2023-02-02T03:55:41.889Z,0.68
2023-02-02T03:56:16.401Z,0.68
2023-02-02T03:56:49.803Z,0.69
2023-02-02T03:57:23.280Z,0.69
2023-02-02T03:57:56.720Z,0.71
2023-02-02T03:58:30.054Z,0.67
2023-02-02T03:59:03.619Z,0.68
2023-02-02T03:59:37.050Z,0.73
2023-02-02T04:00:11.120Z,0.66
2023-02-02T04:00:47.297Z,0.67
2023-02-02T04:01:28.192Z,0.67
2023-02-02T04:02:01.699Z,0.66
2023-02-02T04:02:35.433Z,0.65
2023-02-02T04:03:08.982Z,0.64
2023-02-02T04:03:42.659Z,0.65
2023-02-02T04:04:16.763Z,0.66
2023-02-02T04:04:50.123Z,0.70
2023-02-02T04:05:23.952Z,0.68
2023-02-02T04:05:57.640Z,0.71
2023-02-02T04:06:31.029Z,0.76
2023-02-02T04:07:05.602Z,0.81
2023-02-02T04:07:39.024Z,0.73
2023-02-02T04:08:12.379Z,0.70
2023-02-02T04:08:45.784Z,0.78
2023-02-02T04:09:19.265Z,0.83
2023-02-02T04:09:52.607Z,0.91
2023-02-02T04:10:26.007Z,0.85
2023-02-02T04:10:59.794Z,0.80
2023-02-02T04:11:35.867Z,0.76
2023-02-02T04:12:09.444Z,0.78
2023-02-02T04:12:42.887Z,0.80
2023-02-02T04:13:16.521Z,0.85
2023-02-02T04:13:49.963Z,0.88
2023-02-02T04:14:23.399Z,0.81
2023-02-02T04:14:56.795Z,0.79
2023-02-02T04:15:30.194Z,0.77
2023-02-02T04:16:04.269Z,0.78
2023-02-02T04:16:37.990Z,0.81
2023-02-02T04:17:11.834Z,0.78
2023-02-02T04:17:45.249Z,0.74
2023-02-02T04:18:18.606Z,0.78
2023-02-02T04:18:52.049Z,0.80
2023-02-02T04:19:25.538Z,0.81
2023-02-02T04:19:58.897Z,0.77
2023-02-02T04:20:32.409Z,0.74
2023-02-02T04:21:07.972Z,0.81
2023-02-02T04:21:41.434Z,0.83
2023-02-02T04:22:14.787Z,0.79
2023-02-02T04:22:48.178Z,0.76
2023-02-02T04:23:21.534Z,0.74
2023-02-02T04:23:55.040Z,0.76
2023-02-02T04:24:28.441Z,0.82
2023-02-02T04:25:01.871Z,0.75
2023-02-02T04:25:35.434Z,0.71
2023-02-02T04:26:09.275Z,0.75
2023-02-02T04:26:43.198Z,0.74
2023-02-02T04:27:16.728Z,0.73
2023-02-02T04:27:50.236Z,0.70
2023-02-02T04:28:24.539Z,0.74
2023-02-02T04:28:57.921Z,0.67
2023-02-02T04:29:31.459Z,0.63
2023-02-02T04:30:06.047Z,0.68
2023-02-02T04:30:39.456Z,0.70
2023-02-02T04:31:13.027Z,0.68
2023-02-02T04:31:46.611Z,0.62
2023-02-02T04:32:20.088Z,0.61
2023-02-02T04:32:53.521Z,0.61
2023-02-02T04:33:28.372Z,0.59
2023-02-02T04:34:02.048Z,0.58
2023-02-02T04:34:35.582Z,0.51
2023-02-02T04:35:09.628Z,0.59
2023-02-02T04:35:43.985Z,0.54
2023-02-02T04:36:17.396Z,0.54
2023-02-02T04:36:50.704Z,0.52
2023-02-02T04:37:24.067Z,0.51
2023-02-02T04:37:57.424Z,0.47
2023-02-02T04:38:30.847Z,0.49
2023-02-02T04:39:04.296Z,0.48
2023-02-02T04:39:38.049Z,0.45
2023-02-02T04:40:12.124Z,0.50
2023-02-02T04:40:47.504Z,0.52
2023-02-02T04:41:22.138Z,0.47
2023-02-02T04:41:55.526Z,0.42
2023-02-02T04:42:29.554Z,0.42
2023-02-02T04:43:03.087Z,0.40
2023-02-02T04:43:37.474Z,0.40
2023-02-02T04:44:16.202Z,0.42
2023-02-02T04:44:49.706Z,0.47
2023-02-02T04:45:23.343Z,0.48
2023-02-02T04:45:57.595Z,0.46
2023-02-02T04:46:48.829Z,0.44
2023-02-02T04:47:22.192Z,0.45
2023-02-02T04:47:55.580Z,0.52
2023-02-02T04:48:28.872Z,0.54
2023-02-02T04:49:02.327Z,0.49
2023-02-02T04:49:35.830Z,0.47
2023-02-02T04:50:09.999Z,0.47
2023-02-02T04:50:43.373Z,0.45
2023-02-02T04:51:18.926Z,0.48
2023-02-02T04:51:52.362Z,0.49
2023-02-02T04:52:25.746Z,0.49
2023-02-02T04:52:59.165Z,0.46
2023-02-02T04:53:32.783Z,0.46
2023-02-02T04:54:07.193Z,0.46
2023-02-02T04:54:40.586Z,0.49
2023-02-02T04:55:14.275Z,0.53
2023-02-02T04:55:47.658Z,0.52
2023-02-02T04:56:21.319Z,0.47
2023-02-02T04:56:57.434Z,0.48
2023-02-02T04:57:31.035Z,0.47
2023-02-02T04:58:05.233Z,0.49
2023-02-02T04:58:38.671Z,0.50
2023-02-02T04:59:12.064Z,0.53
2023-02-02T04:59:45.555Z,0.55
2023-02-02T05:00:19.198Z,0.65
2023-02-02T05:00:52.611Z,0.66
2023-02-02T05:01:26.805Z,0.63
2023-02-02T05:02:01.277Z,0.61
2023-02-02T05:02:39.046Z,0.63
2023-02-02T05:03:12.754Z,0.67
2023-02-02T05:03:46.571Z,0.76
2023-02-02T05:04:20.179Z,0.69
2023-02-02T05:04:53.586Z,0.67
2023-02-02T05:05:27.236Z,0.66
2023-02-02T05:06:05.287Z,0.62
2023-02-02T05:06:38.712Z,0.67
2023-02-02T05:07:12.184Z,0.67
2023-02-02T05:07:45.574Z,0.68
2023-02-02T05:08:18.955Z,0.75
2023-02-02T05:08:52.471Z,0.76
2023-02-02T05:09:26.047Z,0.76
2023-02-02T05:09:59.365Z,0.73
2023-02-02T05:10:32.754Z,0.72
2023-02-02T05:11:10.776Z,0.70
2023-02-02T05:11:44.783Z,0.72
2023-02-02T05:12:18.178Z,0.72
2023-02-02T05:12:54.799Z,0.72
2023-02-02T05:13:28.144Z,0.73
2023-02-02T05:14:01.592Z,0.75
2023-02-02T05:14:35.096Z,0.77
2023-02-02T05:15:09.042Z,0.82
2023-02-02T05:15:42.470Z,0.77
2023-02-02T05:16:16.096Z,0.75
2023-02-02T05:16:50.160Z,0.85
2023-02-02T05:17:23.604Z,0.82
2023-02-02T05:17:56.970Z,0.85
2023-02-02T05:18:31.787Z,0.86
2023-02-02T05:19:07.845Z,0.81
2023-02-02T05:19:42.033Z,0.87
2023-02-02T05:20:15.599Z,0.85
2023-02-02T05:20:49.097Z,0.90
2023-02-02T05:21:23.099Z,0.83
2023-02-02T05:21:56.529Z,0.85
2023-02-02T05:22:29.952Z,0.81
2023-02-02T05:23:03.531Z,0.85
2023-02-02T05:23:36.920Z,0.84
2023-02-02T05:24:11.125Z,0.84
2023-02-02T05:24:44.717Z,0.88
2023-02-02T05:25:18.488Z,0.84
2023-02-02T05:25:53.389Z,0.82
2023-02-02T05:26:27.572Z,0.80
2023-02-02T05:27:01.120Z,0.82
2023-02-02T05:27:35.267Z,0.85
2023-02-02T05:28:08.584Z,0.88
2023-02-02T05:28:43.060Z,0.84
2023-02-02T05:29:16.489Z,0.82
2023-02-02T05:29:50.016Z,0.91
2023-02-02T05:30:23.442Z,0.86
2023-02-02T05:30:57.747Z,0.91
2023-02-02T05:31:32.257Z,0.89
2023-02-02T05:32:05.847Z,0.87
2023-02-02T05:32:39.382Z,0.91
2023-02-02T05:33:13.066Z,0.84
2023-02-02T05:33:46.469Z,0.89
2023-02-02T05:34:19.970Z,1.01
2023-02-02T05:34:53.342Z,1.03
2023-02-02T05:35:27.000Z,0.93
2023-02-02T05:36:00.929Z,0.89
2023-02-02T05:36:34.465Z,0.83
2023-02-02T05:37:07.815Z,0.83
2023-02-02T05:37:43.405Z,0.80
2023-02-02T05:38:17.085Z,0.79
2023-02-02T05:38:50.495Z,0.79
2023-02-02T05:39:24.047Z,0.79
2023-02-02T05:39:57.682Z,0.78
2023-02-02T05:40:31.300Z,0.82
2023-02-02T05:41:05.447Z,0.82
2023-02-02T05:41:38.904Z,0.79
2023-02-02T05:42:12.294Z,0.78
2023-02-02T05:42:49.301Z,0.76
2023-02-02T05:43:26.549Z,0.78
2023-02-02T05:44:00.507Z,0.77
2023-02-02T05:44:34.006Z,0.78
2023-02-02T05:45:07.884Z,0.76
2023-02-02T05:45:42.309Z,0.74
2023-02-02T05:46:15.812Z,0.75
2023-02-02T05:46:49.181Z,0.77
2023-02-02T05:47:22.990Z,0.75
2023-02-02T05:47:56.438Z,0.75
2023-02-02T05:48:29.883Z,0.76
2023-02-02T05:49:05.313Z,0.76
2023-02-02T05:49:38.593Z,0.81
2023-02-02T05:50:12.080Z,0.83
2023-02-02T05:50:49.771Z,0.83
2023-02-02T05:51:30.351Z,0.87
2023-02-02T05:52:04.111Z,0.90
2023-02-02T05:52:39.452Z,0.87
2023-02-02T05:53:14.527Z,0.87
2023-02-02T05:53:47.971Z,0.84
2023-02-02T05:54:21.380Z,0.87
2023-02-02T05:54:55.040Z,0.87
2023-02-02T05:55:28.554Z,0.89
2023-02-02T05:56:01.879Z,0.91
2023-02-02T05:56:35.357Z,0.84
2023-02-02T05:57:10.910Z,0.91
2023-02-02T05:57:44.804Z,0.96
2023-02-02T05:58:18.211Z,0.93
2023-02-02T05:58:51.533Z,0.97
2023-02-02T05:59:25.430Z,0.93
2023-02-02T05:59:58.875Z,0.83
2023-02-02T06:00:32.358Z,0.83
2023-02-02T06:01:05.807Z,0.88
2023-02-02T06:01:39.200Z,0.89
2023-02-02T06:02:12.576Z,0.86
2023-02-02T06:02:46.060Z,0.84
2023-02-02T06:03:22.760Z,0.80
2023-02-02T06:03:56.154Z,0.77
2023-02-02T06:04:29.512Z,0.80
2023-02-02T06:05:03.621Z,0.88
2023-02-02T06:05:36.946Z,0.80
2023-02-02T06:06:10.261Z,0.88
2023-02-02T06:06:44.263Z,0.77
2023-02-02T06:07:17.629Z,0.71
2023-02-02T06:07:50.971Z,0.70
2023-02-02T06:08:24.377Z,0.69
2023-02-02T06:08:57.800Z,0.75
2023-02-02T06:09:31.114Z,0.71
2023-02-02T06:10:05.055Z,0.68
2023-02-02T06:10:42.017Z,0.69
2023-02-02T06:11:18.021Z,0.68
2023-02-02T06:11:51.461Z,0.64
2023-02-02T06:12:24.835Z,0.66
2023-02-02T06:12:58.887Z,0.63
2023-02-02T06:13:33.448Z,0.62
2023-02-02T06:14:07.836Z,0.57
2023-02-02T06:14:41.209Z,0.57
2023-02-02T06:15:14.721Z,0.55
2023-02-02T06:15:48.155Z,0.51
2023-02-02T06:16:21.744Z,0.52
2023-02-02T06:16:55.216Z,0.53
2023-02-02T06:17:28.587Z,0.56
2023-02-02T06:18:02.391Z,0.56
2023-02-02T06:18:36.466Z,0.56
2023-02-02T06:19:10.174Z,0.58
2023-02-02T06:19:45.083Z,0.53
2023-02-02T06:20:21.379Z,0.47
2023-02-02T06:20:59.427Z,0.48
2023-02-02T06:21:32.879Z,0.48
2023-02-02T06:22:07.179Z,0.47
2023-02-02T06:22:40.599Z,0.46
2023-02-02T06:23:13.948Z,0.49
2023-02-02T06:23:47.268Z,0.45
2023-02-02T06:24:20.587Z,0.52
2023-02-02T06:24:53.928Z,0.50
2023-02-02T06:25:27.814Z,0.46
2023-02-02T06:26:03.800Z,0.43
2023-02-02T06:26:37.322Z,0.46
2023-02-02T06:27:10.738Z,0.41
2023-02-02T06:27:46.373Z,0.42
2023-02-02T06:28:19.770Z,0.39
2023-02-02T06:28:55.070Z,0.39
2023-02-02T06:29:28.758Z,0.38
2023-02-02T06:30:02.258Z,0.41
2023-02-02T06:30:35.890Z,0.39
2023-02-02T06:31:11.584Z,0.42
2023-02-02T06:31:45.103Z,0.37
2023-02-02T06:32:18.556Z,0.40
2023-02-02T06:32:51.929Z,0.39
2023-02-02T06:33:25.258Z,0.34
2023-02-02T06:33:59.052Z,0.36
2023-02-02T06:34:32.376Z,0.41
2023-02-02T06:35:06.616Z,0.38
2023-02-02T06:35:39.946Z,0.36
2023-02-02T06:36:13.660Z,0.38
2023-02-02T06:36:47.091Z,0.37
2023-02-02T06:37:20.479Z,0.36
2023-02-02T06:37:54.025Z,0.41
2023-02-02T06:38:27.618Z,0.41
2023-02-02T06:39:02.697Z,0.38
2023-02-02T06:39:36.137Z,0.42
2023-02-02T06:40:10.209Z,0.41
2023-02-02T06:40:43.668Z,0.39
2023-02-02T06:41:17.280Z,0.40
2023-02-02T06:41:52.196Z,0.40
2023-02-02T06:42:25.516Z,0.35
2023-02-02T06:43:02.832Z,0.40
2023-02-02T06:43:36.250Z,0.37
2023-02-02T06:44:09.642Z,0.35
2023-02-02T06:44:42.969Z,0.34
2023-02-02T06:45:16.427Z,0.32
2023-02-02T06:45:49.720Z,0.37
2023-02-02T06:46:23.345Z,0.37
2023-02-02T06:46:56.743Z,0.39
2023-02-02T06:47:30.110Z,0.42
2023-02-02T06:48:08.565Z,0.42
2023-02-02T06:48:42.641Z,0.38
2023-02-02T06:49:16.003Z,0.36
2023-02-02T06:49:49.336Z,0.39
2023-02-02T06:50:22.611Z,0.39
2023-02-02T06:50:59.851Z,0.37
2023-02-02T06:51:33.405Z,0.36
2023-02-02T06:52:08.046Z,0.51
2023-02-02T06:52:48.372Z,0.48
2023-02-02T06:53:23.481Z,0.39
2023-02-02T06:53:59.414Z,0.45
2023-02-02T06:54:32.940Z,0.48
2023-02-02T06:55:06.729Z,0.46
2023-02-02T06:55:40.143Z,0.47
2023-02-02T06:56:13.931Z,0.52
2023-02-02T06:56:47.230Z,0.52
2023-02-02T06:57:20.541Z,0.53
2023-02-02T06:58:01.293Z,0.55
2023-02-02T06:58:35.214Z,0.54
2023-02-02T06:59:08.537Z,0.56
2023-02-02T06:59:41.913Z,0.58
2023-02-02T07:00:15.611Z,0.59
2023-02-02T07:00:49.477Z,0.63
2023-02-02T07:01:22.935Z,0.60
2023-02-02T07:01:56.345Z,0.64
2023-02-02T07:02:29.726Z,0.68
2023-02-02T07:03:03.426Z,0.64
2023-02-02T07:03:37.769Z,0.67
2023-02-02T07:04:11.092Z,0.70
2023-02-02T07:04:44.448Z,0.71
2023-02-02T07:05:19.665Z,0.70
2023-02-02T07:05:52.964Z,0.74
2023-02-02T07:06:28.879Z,0.73
2023-02-02T07:07:02.247Z,0.73
2023-02-02T07:07:35.943Z,0.77
2023-02-02T07:08:09.291Z,0.78
2023-02-02T07:08:43.559Z,0.84
2023-02-02T07:09:17.227Z,0.83
2023-02-02T07:09:58.040Z,0.82
2023-02-02T07:11:14.988Z,0.82
2023-02-02T07:11:25.400Z,0.78
2023-02-02T07:11:59.517Z,0.78
2023-02-02T07:12:32.999Z,0.78
2023-02-02T07:13:09.602Z,0.83
2023-02-02T07:13:46.854Z,0.81
2023-02-02T07:14:20.171Z,0.81
2023-02-02T07:14:54.278Z,0.87
2023-02-02T07:15:27.565Z,0.87
2023-02-02T07:16:01.007Z,0.85
2023-02-02T07:16:34.581Z,0.87
2023-02-02T07:17:08.018Z,0.88
2023-02-02T07:17:41.402Z,0.88
2023-02-02T07:18:14.700Z,0.91
2023-02-02T07:18:49.557Z,0.91
2023-02-02T07:19:22.930Z,0.87
2023-02-02T07:19:56.412Z,0.91
2023-02-02T07:20:29.750Z,0.92
2023-02-02T07:21:03.280Z,0.91
2023-02-02T07:21:36.758Z,0.90
2023-02-02T07:22:10.199Z,0.93
2023-02-02T07:22:43.676Z,0.93
2023-02-02T07:23:17.176Z,0.94
2023-02-02T07:23:50.842Z,0.95
2023-02-02T07:24:24.187Z,0.93
2023-02-02T07:24:57.799Z,0.91
2023-02-02T07:25:31.074Z,0.90
2023-02-02T07:26:09.711Z,0.94
2023-02-02T07:26:43.170Z,0.93
2023-02-02T07:27:16.579Z,0.90
2023-02-02T07:27:53.933Z,0.90
2023-02-02T07:28:28.319Z,0.93
2023-02-02T07:29:01.814Z,0.88
2023-02-02T07:29:35.305Z,0.91
2023-02-02T07:30:09.671Z,0.96
2023-02-02T07:30:43.074Z,0.93
2023-02-02T07:31:22.485Z,0.95
2023-02-02T07:31:56.070Z,0.92
2023-02-02T07:32:29.553Z,0.93
2023-02-02T07:33:02.962Z,0.93
2023-02-02T07:33:40.284Z,0.95
2023-02-02T07:34:13.748Z,0.94
2023-02-02T07:34:47.262Z,0.97
2023-02-02T07:35:20.595Z,0.96
2023-02-02T07:35:54.004Z,0.92
2023-02-02T07:36:27.500Z,0.94
2023-02-02T07:37:00.854Z,0.92
2023-02-02T07:37:34.317Z,0.91
2023-02-02T07:38:08.323Z,0.96
2023-02-02T07:38:42.152Z,0.92
2023-02-02T07:39:16.031Z,0.86
2023-02-02T07:39:49.381Z,0.87
2023-02-02T07:40:23.523Z,0.89
2023-02-02T07:40:56.920Z,0.93
2023-02-02T07:41:30.917Z,0.97
2023-02-02T07:42:05.630Z,0.98
2023-02-02T07:42:41.375Z,0.96
2023-02-02T07:43:14.790Z,0.99
2023-02-02T07:43:49.260Z,0.98
2023-02-02T07:44:22.613Z,0.97
2023-02-02T07:44:56.145Z,0.99
2023-02-02T07:45:31.859Z,0.99
2023-02-02T07:46:10.173Z,0.99
2023-02-02T07:46:47.965Z,0.97
2023-02-02T07:47:21.414Z,0.96
2023-02-02T07:48:01.178Z,1.02
2023-02-02T07:48:35.255Z,1.04
2023-02-02T07:49:11.115Z,0.98
2023-02-02T07:49:46.055Z,1.03
2023-02-02T07:50:19.746Z,1.04
2023-02-02T07:50:53.078Z,0.99
2023-02-02T07:51:26.898Z,0.99
2023-02-02T07:52:00.367Z,1.04
2023-02-02T07:52:33.985Z,1.08
2023-02-02T07:53:07.701Z,1.09
2023-02-02T07:53:47.584Z,1.08
2023-02-02T07:54:21.305Z,1.05
2023-02-02T07:55:05.379Z,1.11
2023-02-02T07:55:47.324Z,1.07
2023-02-02T07:56:23.580Z,1.18
2023-02-02T07:56:57.777Z,1.12
2023-02-02T07:57:31.205Z,1.18
2023-02-02T07:58:04.666Z,1.21
2023-02-02T07:58:38.354Z,1.21
2023-02-02T07:59:11.883Z,1.18
2023-02-02T07:59:45.281Z,1.17
2023-02-02T08:00:19.697Z,1.17